Time;durP1;ratioP1;P1;durP2;ratioP2;P2;SDS_P1;SDS_P2;PMS_P1;PMS_P2;Temp;Humidity;BMP_temperature;BMP_pressure;BME280_temperature;BME280_humidity;BME280_pressure;Samples;Min_cycle;Max_cycle;Signal;HPM_P1;HPM_P2
2023/11/12 00:02:04;;;;;;;0.70;0.70;;;4.30;99.90;;;;;;5033983;28;20152;-81
2023/11/12 00:04:30;;;;;;;0.50;0.50;;;4.30;99.90;;;;;;5045447;28;20051;-82
2023/11/12 00:06:56;;;;;;;0.63;0.63;;;4.30;99.90;;;;;;5027570;28;20038;-81
2023/11/12 00:09:27;;;;;;;0.90;0.90;;;4.40;99.90;;;;;;5041395;28;20045;-82
2023/11/12 00:12:07;;;;;;;0.73;0.73;;;4.30;99.90;;;;;;5015502;28;20052;-79
2023/11/12 00:14:32;;;;;;;0.50;0.50;;;4.40;99.90;;;;;;5019926;28;20470;-83
2023/11/12 00:16:58;;;;;;;0.50;0.50;;;4.40;99.90;;;;;;5040140;28;20064;-81
2023/11/12 00:19:25;;;;;;;0.60;0.60;;;4.40;99.90;;;;;;5014721;28;20098;-82
2023/11/12 00:21:50;;;;;;;0.50;0.50;;;4.40;99.90;;;;;;5021083;28;20118;-81
2023/11/12 00:24:19;;;;;;;0.50;0.50;;;4.40;99.90;;;;;;5033688;28;20099;-81
2023/11/12 00:26:48;;;;;;;0.60;0.60;;;4.40;99.90;;;;;;5046473;28;20048;-82
2023/11/12 00:29:13;;;;;;;0.50;0.50;;;4.90;99.90;;;;;;5031945;28;20040;-80
2023/11/12 00:31:40;;;;;;;0.50;0.50;;;4.30;99.90;;;;;;5031979;28;20453;-81
2023/11/12 00:34:06;;;;;;;0.50;0.50;;;4.70;99.90;;;;;;5044005;28;20044;-83
2023/11/12 00:36:34;;;;;;;1.02;1.02;;;4.50;99.90;;;;;;5027155;28;20410;-83
2023/11/12 00:38:59;;;;;;;0.60;0.60;;;4.20;99.90;;;;;;5018750;28;20099;-81
2023/11/12 00:41:25;;;;;;;0.70;0.70;;;4.60;99.90;;;;;;5025841;28;20053;-80
2023/11/12 00:43:56;;;;;;;0.80;0.80;;;4.30;99.90;;;;;;5044440;28;20085;-79
2023/11/12 00:46:22;;;;;;;0.60;0.60;;;4.20;99.90;;;;;;5001242;28;20053;-82
2023/11/12 00:48:48;;;;;;;0.60;0.60;;;4.50;99.90;;;;;;5044793;28;20064;-80
2023/11/12 00:51:16;;;;;;;0.70;0.70;;;4.20;99.90;;;;;;5026757;28;20351;-81
2023/11/12 00:53:41;;;;;;;0.50;0.50;;;4.20;99.90;;;;;;5011507;28;20036;-80
2023/11/12 00:56:09;;;;;;;0.60;0.60;;;4.20;99.90;;;;;;5022983;28;20581;-80
2023/11/12 00:58:37;;;;;;;0.57;0.57;;;4.20;99.90;;;;;;5018637;28;20506;-80
2023/11/12 01:01:06;;;;;;;0.50;0.50;;;4.30;99.90;;;;;;5017864;28;20190;-79
2023/11/12 01:03:32;;;;;;;0.55;0.55;;;4.30;99.90;;;;;;5027877;28;20060;-79
2023/11/12 01:06:03;;;;;;;0.52;0.52;;;4.30;99.90;;;;;;5052583;28;20054;-79
2023/11/12 01:08:30;;;;;;;0.50;0.50;;;4.20;99.90;;;;;;5022145;28;20427;-79
2023/11/12 01:10:56;;;;;;;0.45;0.45;;;4.70;99.90;;;;;;5012191;28;20042;-80
2023/11/12 01:13:22;;;;;;;0.60;0.60;;;4.00;99.90;;;;;;5030671;28;20048;-80
2023/11/12 01:15:49;;;;;;;0.70;0.70;;;4.00;99.90;;;;;;5036698;28;20402;-79
2023/11/12 01:18:20;;;;;;;0.50;0.50;;;4.00;99.90;;;;;;5037522;28;20047;-80
2023/11/12 01:20:52;;;;;;;0.70;0.70;;;4.00;99.90;;;;;;5052314;28;20048;-78
2023/11/12 01:23:18;;;;;;;0.60;0.60;;;3.90;99.90;;;;;;5016863;28;20561;-81
2023/11/12 01:25:47;;;;;;;0.68;0.68;;;3.90;99.90;;;;;;5019663;28;20039;-84
2023/11/12 01:28:12;;;;;;;0.73;0.63;;;3.90;99.90;;;;;;5048351;28;20538;-79
2023/11/12 01:30:40;;;;;;;0.63;0.63;;;4.40;99.90;;;;;;5050073;28;20053;-81
2023/11/12 01:33:11;;;;;;;0.60;0.60;;;3.90;99.90;;;;;;5032344;28;20392;-81
2023/11/12 01:35:37;;;;;;;0.60;0.60;;;3.90;99.90;;;;;;5019442;28;20456;-83
2023/11/12 01:38:04;;;;;;;0.80;0.80;;;3.90;99.90;;;;;;5025468;28;20063;-80
2023/11/12 01:40:35;;;;;;;0.80;0.80;;;3.90;99.90;;;;;;5032649;28;20038;-80
2023/11/12 01:43:01;;;;;;;0.60;0.60;;;4.10;99.90;;;;;;5051176;28;20474;-80
2023/11/12 01:45:26;;;;;;;0.82;0.82;;;3.90;99.90;;;;;;5060059;28;20048;-79
2023/11/12 01:47:53;;;;;;;0.50;0.50;;;4.30;99.90;;;;;;5048204;28;20239;-80
2023/11/12 01:50:19;;;;;;;;;;;3.80;99.90;;;;;;5032489;28;20131;-81
2023/11/12 01:52:46;;;;;;;0.70;0.70;;;4.00;99.90;;;;;;5052160;28;20013;-81
2023/11/12 01:55:13;;;;;;;0.60;0.60;;;4.00;99.90;;;;;;5044166;28;20044;-83
2023/11/12 01:57:41;;;;;;;0.52;0.52;;;3.80;99.90;;;;;;5038165;28;20036;-81
2023/11/12 02:00:11;;;;;;;0.57;0.57;;;4.50;99.90;;;;;;5032832;28;20422;-80
2023/11/12 02:02:37;;;;;;;0.47;0.47;;;3.90;99.90;;;;;;5037462;28;20391;-82
2023/11/12 02:05:08;;;;;;;0.60;0.60;;;3.90;99.90;;;;;;5054765;28;20099;-80
2023/11/12 02:07:42;;;;;;;0.70;0.70;;;4.00;99.90;;;;;;5048403;28;20053;-80
2023/11/12 02:10:11;;;;;;;0.50;0.50;;;4.00;99.90;;;;;;5039049;28;20086;-80
2023/11/12 02:12:43;;;;;;;2.10;1.98;;;4.10;99.90;;;;;;5023581;28;20030;-80
2023/11/12 02:15:10;;;;;;;0.65;0.65;;;4.10;99.90;;;;;;5035754;28;20083;-80
2023/11/12 02:17:38;;;;;;;0.88;0.88;;;4.10;99.90;;;;;;5042423;28;20055;-80
2023/11/12 02:20:15;;;;;;;0.63;0.63;;;4.10;99.90;;;;;;5049133;28;20462;-80
2023/11/12 02:22:56;;;;;;;1.13;1.13;;;4.10;99.90;;;;;;5035261;28;20106;-80
2023/11/12 02:25:22;;;;;;;1.40;1.30;;;4.10;99.90;;;;;;5057196;28;20041;-81
2023/11/12 02:27:48;;;;;;;;;;;4.10;99.90;;;;;;5038276;28;20068;-81
2023/11/12 02:30:15;;;;;;;0.60;0.60;;;4.20;99.90;;;;;;5036195;28;20054;-81
2023/11/12 02:32:42;;;;;;;0.75;0.75;;;4.20;99.90;;;;;;5048863;28;20059;-80
2023/11/12 02:35:08;;;;;;;0.75;0.75;;;4.10;99.90;;;;;;5035153;28;20040;-83
2023/11/12 02:37:35;;;;;;;0.60;0.60;;;4.20;99.90;;;;;;5020737;28;20118;-80
2023/11/12 02:40:07;;;;;;;0.82;0.82;;;4.20;99.90;;;;;;5060850;28;20469;-81
2023/11/12 02:42:34;;;;;;;0.70;0.70;;;4.20;99.90;;;;;;5037298;28;20054;-79
2023/11/12 02:45:03;;;;;;;0.57;0.57;;;4.10;99.90;;;;;;5051298;28;20115;-80
2023/11/12 02:47:29;;;;;;;0.60;0.60;;;4.10;99.90;;;;;;5015985;28;20045;-82
2023/11/12 02:50:35;;;;;;;0.70;0.70;;;4.10;99.90;;;;;;5022944;28;20090;-79
2023/11/12 02:53:05;;;;;;;0.50;0.50;;;4.10;99.90;;;;;;5032619;28;20456;-82
2023/11/12 02:55:32;;;;;;;0.93;0.80;;;4.10;99.90;;;;;;5047569;28;20440;-79
2023/11/12 02:58:00;;;;;;;0.50;0.50;;;4.10;99.90;;;;;;5018262;28;20151;-81
2023/11/12 03:00:27;;;;;;;0.80;0.80;;;4.10;99.90;;;;;;5043858;28;20123;-81
2023/11/12 03:02:54;;;;;;;0.95;0.95;;;4.10;99.90;;;;;;5033856;28;20038;-81
2023/11/12 03:05:20;;;;;;;0.60;0.60;;;4.10;99.90;;;;;;5045513;28;20145;-80
2023/11/12 03:07:46;;;;;;;0.70;0.70;;;4.00;99.90;;;;;;5048860;28;20540;-80
2023/11/12 03:10:15;;;;;;;0.50;0.50;;;4.00;99.90;;;;;;5037595;28;20568;-80
2023/11/12 03:12:41;;;;;;;0.90;0.90;;;4.00;99.90;;;;;;5020021;28;20033;-80
2023/11/12 03:15:12;;;;;;;0.88;0.88;;;3.90;99.90;;;;;;5055445;28;20036;-80
2023/11/12 03:17:39;;;;;;;0.60;0.60;;;3.90;99.90;;;;;;5031808;28;20045;-81
2023/11/12 03:20:09;;;;;;;0.88;0.88;;;4.00;99.90;;;;;;5051353;28;20052;-79
2023/11/12 03:22:38;;;;;;;0.60;0.60;;;4.00;99.90;;;;;;5034518;28;20041;-79
2023/11/12 03:25:05;;;;;;;1.90;1.80;;;4.00;99.90;;;;;;5046020;28;20041;-80
2023/11/12 03:27:32;;;;;;;0.52;0.52;;;4.00;99.90;;;;;;5044454;28;20079;-83
2023/11/12 03:29:58;;;;;;;0.57;0.57;;;4.20;99.90;;;;;;5049668;28;20097;-80
2023/11/12 03:32:24;;;;;;;0.88;0.88;;;4.20;99.90;;;;;;5031002;28;20128;-81
2023/11/12 03:34:53;;;;;;;0.70;0.70;;;4.00;99.90;;;;;;5053092;28;20049;-82
2023/11/12 03:37:24;;;;;;;0.57;0.57;;;5.80;99.90;;;;;;5043166;28;20403;-83
2023/11/12 03:39:52;;;;;;;0.80;0.80;;;4.00;99.90;;;;;;5035608;28;20142;-84
2023/11/12 03:42:17;;;;;;;0.70;0.70;;;3.90;99.90;;;;;;5047596;28;20063;-81
2023/11/12 03:44:46;;;;;;;0.60;0.60;;;4.00;99.90;;;;;;5044583;28;20447;-81
2023/11/12 03:47:18;;;;;;;0.65;0.65;;;4.00;99.90;;;;;;5044275;28;20385;-81
2023/11/12 03:49:45;;;;;;;1.00;1.00;;;3.90;99.90;;;;;;5042721;28;20128;-81
2023/11/12 03:52:11;;;;;;;0.50;0.50;;;3.90;99.90;;;;;;5022697;28;20468;-82
2023/11/12 03:54:37;;;;;;;0.85;0.85;;;3.90;99.90;;;;;;5054084;28;20040;-81
2023/11/12 03:57:04;;;;;;;0.80;0.80;;;4.20;99.90;;;;;;5032171;28;20047;-79
2023/11/12 03:59:31;;;;;;;0.60;0.60;;;3.90;99.90;;;;;;5023578;28;20057;-80
2023/11/12 04:02:04;;;;;;;0.60;0.60;;;3.80;99.90;;;;;;5051563;28;20055;-84
2023/11/12 04:04:30;;;;;;;0.60;0.60;;;3.80;99.90;;;;;;5051391;28;20542;-81
2023/11/12 04:06:56;;;;;;;1.00;1.00;;;3.80;99.90;;;;;;5033370;28;20045;-84
2023/11/12 04:09:23;;;;;;;0.60;0.60;;;3.70;99.90;;;;;;5051857;28;20061;-80
2023/11/12 04:11:52;;;;;;;0.55;0.55;;;3.70;99.90;;;;;;5053181;28;20510;-79
2023/11/12 04:14:22;;;;;;;0.70;0.70;;;3.70;99.90;;;;;;5031007;28;20045;-82
2023/11/12 04:16:53;;;;;;;0.52;0.52;;;3.70;99.90;;;;;;5027237;28;20048;-81
2023/11/12 04:19:20;;;;;;;0.60;0.60;;;3.80;99.90;;;;;;5052684;28;20044;-86
2023/11/12 04:21:47;;;;;;;0.70;0.70;;;3.80;99.90;;;;;;5029469;28;20406;-79
2023/11/12 04:24:14;;;;;;;1.13;1.13;;;3.90;99.90;;;;;;5052117;28;20045;-85
2023/11/12 04:26:44;;;;;;;0.60;0.60;;;3.90;99.90;;;;;;5032581;28;20069;-83
2023/11/12 04:29:10;;;;;;;0.63;0.63;;;4.10;99.90;;;;;;5033162;28;20498;-82
2023/11/12 04:31:39;;;;;;;1.08;1.08;;;4.10;99.90;;;;;;5017362;28;20557;-81
2023/11/12 04:34:07;;;;;;;1.48;1.40;;;4.20;99.90;;;;;;5053634;28;20124;-80
2023/11/12 04:36:35;;;;;;;0.47;0.47;;;4.10;99.90;;;;;;5022461;28;20041;-81
2023/11/12 04:39:00;;;;;;;0.63;0.63;;;4.10;99.90;;;;;;5025494;28;20045;-82
2023/11/12 04:41:29;;;;;;;0.65;0.65;;;4.80;99.90;;;;;;5049335;28;20117;-82
2023/11/12 04:43:56;;;;;;;0.75;0.75;;;4.10;99.90;;;;;;5051330;28;20121;-82
2023/11/12 04:46:22;;;;;;;0.82;0.82;;;4.00;99.90;;;;;;5032694;28;20441;-80
2023/11/12 04:48:49;;;;;;;;;;;4.20;99.90;;;;;;5046044;28;20103;-82
2023/11/12 04:51:22;;;;;;;0.57;0.57;;;3.90;99.90;;;;;;5032848;28;20025;-82
2023/11/12 04:53:48;;;;;;;1.60;1.50;;;3.90;99.90;;;;;;5054949;28;20131;-81
2023/11/12 04:56:14;;;;;;;1.00;1.00;;;3.80;99.90;;;;;;5029836;28;20099;-81
2023/11/12 04:58:40;;;;;;;0.60;0.60;;;3.90;99.90;;;;;;5044720;28;20524;-82
2023/11/12 05:01:06;;;;;;;0.70;0.70;;;3.90;99.90;;;;;;5020800;28;20041;-81
2023/11/12 05:03:32;;;;;;;1.02;1.02;;;3.90;99.90;;;;;;5028197;28;20063;-81
2023/11/12 05:05:59;;;;;;;0.90;0.90;;;3.90;99.90;;;;;;5032461;28;20075;-82
2023/11/12 05:08:27;;;;;;;0.70;0.70;;;4.00;99.90;;;;;;4991107;28;20076;-81
2023/11/12 05:10:52;;;;;;;0.82;0.82;;;3.90;99.90;;;;;;5026406;28;20033;-80
2023/11/12 05:13:20;;;;;;;0.63;0.63;;;3.90;99.90;;;;;;5026877;28;20043;-80
2023/11/12 05:15:45;;;;;;;0.65;0.65;;;4.20;99.90;;;;;;5039264;28;20349;-82
2023/11/12 05:18:11;;;;;;;0.45;0.45;;;3.90;99.90;;;;;;5035346;28;20051;-83
2023/11/12 05:20:37;;;;;;;0.50;0.50;;;3.80;99.90;;;;;;5030070;28;20033;-80
2023/11/12 05:23:04;;;;;;;0.70;0.70;;;3.90;99.90;;;;;;5048965;28;20044;-80
2023/11/12 05:25:30;;;;;;;0.95;0.95;;;4.10;99.90;;;;;;5023129;28;20030;-81
2023/11/12 05:27:56;;;;;;;0.65;0.65;;;3.90;99.90;;;;;;5057213;28;20459;-80
2023/11/12 05:30:23;;;;;;;1.08;1.08;;;4.00;99.90;;;;;;5040870;28;20487;-81
2023/11/12 05:32:49;;;;;;;1.00;1.00;;;4.30;99.90;;;;;;5028985;28;20041;-82
2023/11/12 05:35:15;;;;;;;0.60;0.60;;;4.10;99.90;;;;;;5016043;28;20044;-81
2023/11/12 05:37:41;;;;;;;;;;;4.10;99.90;;;;;;5050829;28;20483;-83
2023/11/12 05:40:08;;;;;;;0.50;0.50;;;4.00;99.90;;;;;;5031553;28;19972;-79
2023/11/12 05:42:34;;;;;;;0.98;0.98;;;4.00;99.90;;;;;;5032371;28;20433;-82
2023/11/12 05:45:00;;;;;;;2.83;1.80;;;4.00;99.90;;;;;;5032692;28;20064;-81
2023/11/12 05:47:27;;;;;;;1.30;1.20;;;4.00;99.90;;;;;;5031259;28;20075;-82
2023/11/12 05:49:56;;;;;;;1.08;0.82;;;4.30;99.90;;;;;;5052037;28;20041;-84
2023/11/12 05:52:22;;;;;;;0.73;0.73;;;4.00;99.90;;;;;;5038893;28;20043;-84
2023/11/12 05:54:48;;;;;;;0.60;0.60;;;3.90;99.90;;;;;;5055296;28;20395;-81
2023/11/12 05:57:14;;;;;;;;;;;4.00;99.90;;;;;;5055577;28;20057;-81
2023/11/12 05:59:40;;;;;;;0.50;0.50;;;3.90;99.90;;;;;;5055894;28;19920;-83
2023/11/12 06:02:05;;;;;;;0.70;0.70;;;3.70;99.90;;;;;;5038891;28;20044;-82
2023/11/12 06:04:34;;;;;;;0.50;0.50;;;3.80;99.90;;;;;;5030727;28;20037;-84
2023/11/12 06:07:01;;;;;;;1.40;1.30;;;3.80;99.90;;;;;;5026945;28;20733;-83
2023/11/12 06:09:29;;;;;;;1.40;1.30;;;3.60;99.90;;;;;;5015625;28;20069;-86
2023/11/12 06:11:57;;;;;;;1.70;1.63;;;3.70;99.90;;;;;;5032420;28;20083;-83
2023/11/12 06:14:24;;;;;;;0.68;0.68;;;3.70;99.90;;;;;;5032058;28;20067;-82
2023/11/12 06:16:53;;;;;;;1.23;1.23;;;3.80;99.90;;;;;;5041718;28;20074;-81
2023/11/12 06:19:24;;;;;;;1.45;1.40;;;3.70;99.90;;;;;;5012853;28;20394;-81
2023/11/12 06:21:50;;;;;;;0.60;0.60;;;3.80;99.90;;;;;;5045500;28;20114;-84
2023/11/12 06:24:15;;;;;;;0.88;0.75;;;3.70;99.90;;;;;;5039558;28;20052;-83
2023/11/12 06:26:45;;;;;;;0.80;0.80;;;3.70;99.90;;;;;;5030320;28;20592;-83
2023/11/12 06:29:11;;;;;;;0.70;0.70;;;3.60;99.90;;;;;;5017308;28;20407;-81
2023/11/12 06:31:37;;;;;;;0.88;0.82;;;3.70;99.90;;;;;;5020513;28;20042;-82
2023/11/12 06:34:03;;;;;;;1.00;1.00;;;3.70;99.90;;;;;;5028162;28;20045;-83
2023/11/12 06:36:28;;;;;;;0.60;0.60;;;3.70;99.90;;;;;;5033028;28;20179;-81
2023/11/12 06:38:54;;;;;;;0.70;0.70;;;3.70;99.90;;;;;;5029351;28;20387;-81
2023/11/12 06:41:20;;;;;;;0.70;0.70;;;3.70;99.90;;;;;;5029242;28;20106;-82
2023/11/12 06:43:45;;;;;;;0.80;0.80;;;4.10;99.90;;;;;;5017314;28;20084;-80
2023/11/12 06:46:11;;;;;;;0.70;0.70;;;4.10;99.90;;;;;;5055056;28;20028;-81
2023/11/12 06:48:39;;;;;;;0.93;0.93;;;3.60;99.90;;;;;;5016440;28;20053;-80
2023/11/12 06:51:07;;;;;;;2.85;1.35;;;3.60;99.90;;;;;;5042418;28;20173;-82
2023/11/12 06:53:32;;;;;;;1.17;1.08;;;3.60;99.90;;;;;;5035284;28;20162;-80
2023/11/12 06:56:00;;;;;;;0.70;0.70;;;3.70;99.90;;;;;;5045508;28;20129;-80
2023/11/12 06:58:26;;;;;;;0.80;0.80;;;3.60;99.90;;;;;;5043852;28;20113;-82
2023/11/12 07:00:54;;;;;;;0.50;0.50;;;3.60;99.90;;;;;;5033104;28;20141;-84
2023/11/12 07:03:21;;;;;;;0.55;0.55;;;3.60;99.90;;;;;;5013402;28;20053;-83
2023/11/12 07:05:48;;;;;;;0.70;0.70;;;3.60;99.90;;;;;;5019155;28;20038;-80
2023/11/12 07:08:14;;;;;;;0.70;0.70;;;3.60;99.90;;;;;;5040834;28;20054;-81
2023/11/12 07:10:41;;;;;;;;;;;3.70;99.90;;;;;;5002407;28;20068;-78
2023/11/12 07:13:10;;;;;;;1.13;1.08;;;3.70;99.90;;;;;;5041007;28;19927;-77
2023/11/12 07:15:36;;;;;;;0.57;0.57;;;3.80;99.90;;;;;;5025549;28;20033;-79
2023/11/12 07:18:02;;;;;;;0.80;0.80;;;3.70;99.90;;;;;;5037045;28;20064;-80
2023/11/12 07:20:32;;;;;;;3.47;1.60;;;3.80;99.90;;;;;;5040144;28;20029;-78
2023/11/12 07:22:59;;;;;;;0.57;0.57;;;3.80;99.90;;;;;;5033547;28;20482;-80
2023/11/12 07:25:25;;;;;;;1.05;1.05;;;4.10;99.90;;;;;;5015090;28;20041;-80
2023/11/12 07:27:51;;;;;;;;;;;3.70;99.90;;;;;;5028693;28;20045;-78
2023/11/12 07:30:21;;;;;;;0.70;0.70;;;3.70;99.90;;;;;;5036441;28;19917;-80
2023/11/12 07:32:46;;;;;;;1.00;1.00;;;3.70;99.90;;;;;;5029235;28;20063;-79
2023/11/12 07:35:13;;;;;;;3.65;3.45;;;3.70;99.90;;;;;;5033855;28;20041;-80
2023/11/12 07:37:43;;;;;;;0.80;0.80;;;3.90;99.90;;;;;;5034483;28;20386;-80
2023/11/12 07:40:17;;;;;;;1.20;1.17;;;3.70;99.90;;;;;;5033717;28;20048;-81
2023/11/12 07:42:49;;;;;;;0.90;0.90;;;3.70;99.90;;;;;;5009452;28;20513;-80
2023/11/12 07:45:17;;;;;;;4.38;1.00;;;3.70;99.90;;;;;;5026357;28;20049;-79
2023/11/12 07:47:45;;;;;;;1.35;0.93;;;3.80;99.90;;;;;;5006151;28;20038;-78
2023/11/12 07:50:13;;;;;;;2.63;2.05;;;3.70;99.90;;;;;;5012464;28;20513;-78
2023/11/12 07:52:41;;;;;;;0.60;0.60;;;3.80;99.90;;;;;;5036300;28;20049;-81
2023/11/12 07:55:07;;;;;;;0.90;0.90;;;4.00;99.90;;;;;;5033733;28;20041;-79
2023/11/12 07:57:34;;;;;;;0.60;0.60;;;4.00;99.90;;;;;;5044278;28;20402;-79
2023/11/12 08:00:00;;;;;;;0.60;0.60;;;4.10;99.90;;;;;;5049024;28;20068;-79
2023/11/12 08:02:26;;;;;;;0.68;0.68;;;4.10;99.90;;;;;;5042486;28;20163;-79
2023/11/12 08:04:52;;;;;;;;;;;4.20;99.90;;;;;;5048308;28;20103;-79
2023/11/12 08:07:18;;;;;;;1.67;1.60;;;4.20;99.90;;;;;;5025159;28;20286;-79
2023/11/12 08:09:46;;;;;;;0.80;0.80;;;4.20;99.90;;;;;;5024612;28;20041;-80
2023/11/12 08:12:13;;;;;;;0.77;0.77;;;4.30;99.90;;;;;;5038841;28;20048;-81
2023/11/12 08:14:40;;;;;;;0.85;0.85;;;4.30;99.90;;;;;;5027845;28;20037;-82
2023/11/12 08:17:05;;;;;;;0.70;0.70;;;4.40;99.90;;;;;;5014429;28;20086;-78
2023/11/12 08:19:31;;;;;;;0.98;0.98;;;4.40;99.90;;;;;;5008238;28;20471;-79
2023/11/12 08:21:59;;;;;;;0.50;0.50;;;4.40;99.90;;;;;;5013479;28;21497;-81
2023/11/12 08:24:25;;;;;;;0.50;0.50;;;4.40;99.90;;;;;;5014769;28;20045;-79
2023/11/12 08:26:50;;;;;;;0.65;0.65;;;5.40;99.90;;;;;;5011261;28;20033;-80
2023/11/12 08:29:16;;;;;;;0.60;0.60;;;4.60;99.90;;;;;;5037299;28;20033;-79
2023/11/12 08:31:43;;;;;;;1.13;1.08;;;4.60;99.90;;;;;;5015467;28;20144;-80
2023/11/12 08:34:09;;;;;;;0.60;0.60;;;4.60;99.90;;;;;;5028361;28;20044;-82
2023/11/12 08:36:36;;;;;;;0.50;0.50;;;4.70;99.90;;;;;;5048443;28;20071;-83
2023/11/12 08:39:04;;;;;;;0.57;0.57;;;4.70;99.90;;;;;;5056548;28;20132;-82
2023/11/12 08:41:31;;;;;;;0.60;0.60;;;4.70;99.90;;;;;;5006590;28;20045;-79
2023/11/12 08:43:56;;;;;;;0.82;0.82;;;4.80;99.90;;;;;;5015573;28;20033;-80
2023/11/12 08:46:23;;;;;;;0.55;0.55;;;4.80;99.90;;;;;;5023900;28;20459;-81
2023/11/12 08:48:49;;;;;;;0.60;0.60;;;5.30;99.90;;;;;;5055094;28;20033;-79
2023/11/12 08:51:14;;;;;;;1.17;1.08;;;5.00;99.90;;;;;;5003133;28;20091;-78
2023/11/12 08:53:40;;;;;;;0.50;0.50;;;5.10;99.90;;;;;;5045160;28;20037;-80
2023/11/12 08:56:07;;;;;;;0.60;0.60;;;5.20;99.90;;;;;;5060020;28;20498;-81
2023/11/12 08:58:34;;;;;;;0.50;0.50;;;5.20;99.90;;;;;;5044178;28;20084;-82
2023/11/12 09:01:03;;;;;;;0.90;0.90;;;5.80;99.90;;;;;;5023007;28;20060;-82
2023/11/12 09:03:29;;;;;;;3.45;0.90;;;5.40;99.90;;;;;;5041320;28;20417;-79
2023/11/12 09:05:55;;;;;;;0.60;0.60;;;5.40;99.90;;;;;;5039931;28;20041;-80
2023/11/12 09:08:21;;;;;;;1.60;1.50;;;5.50;99.90;;;;;;5061229;28;20398;-79
2023/11/12 09:10:47;;;;;;;0.88;0.88;;;5.60;99.90;;;;;;5032936;28;20052;-80
2023/11/12 09:13:13;;;;;;;0.50;0.50;;;5.50;99.90;;;;;;5058061;28;20045;-81
2023/11/12 09:15:39;;;;;;;0.80;0.80;;;5.60;99.90;;;;;;5047382;28;20032;-80
2023/11/12 09:18:05;;;;;;;0.60;0.60;;;5.70;99.90;;;;;;5051845;28;20120;-80
2023/11/12 09:20:31;;;;;;;0.80;0.80;;;5.90;99.90;;;;;;5039025;28;20037;-80
2023/11/12 09:22:56;;;;;;;0.77;0.77;;;5.90;99.90;;;;;;5037179;28;20098;-80
2023/11/12 09:25:22;;;;;;;1.13;1.13;;;6.00;99.90;;;;;;5055336;28;20079;-79
2023/11/12 09:27:48;;;;;;;0.80;0.80;;;6.00;99.90;;;;;;5040190;28;20044;-81
2023/11/12 09:30:14;;;;;;;1.35;1.35;;;6.10;99.90;;;;;;5020527;28;20128;-80
2023/11/12 09:32:41;;;;;;;0.85;0.85;;;6.10;99.90;;;;;;5070053;28;20039;-80
2023/11/12 09:35:08;;;;;;;0.77;0.77;;;6.20;99.90;;;;;;5062763;28;20116;-78
2023/11/12 09:37:34;;;;;;;0.57;0.57;;;6.30;99.90;;;;;;5038211;28;20048;-79
2023/11/12 09:40:00;;;;;;;0.60;0.60;;;6.30;99.90;;;;;;5059866;28;20048;-78
2023/11/12 09:42:28;;;;;;;0.55;0.55;;;6.50;99.90;;;;;;5038896;28;20094;-79
2023/11/12 09:44:59;;;;;;;1.48;1.38;;;6.50;99.90;;;;;;5057267;28;20083;-79
2023/11/12 09:47:53;;;;;;;0.60;0.60;;;6.60;99.90;;;;;;5024548;28;20028;-80
2023/11/12 09:50:24;;;;;;;1.42;0.90;;;6.60;99.90;;;;;;5057264;28;20032;-79
2023/11/12 09:52:51;;;;;;;0.50;0.50;;;6.70;99.90;;;;;;5048706;28;20051;-80
2023/11/12 09:55:21;;;;;;;0.77;0.77;;;6.80;99.90;;;;;;5038802;28;20044;-79
2023/11/12 09:57:51;;;;;;;0.45;0.45;;;6.80;99.90;;;;;;5036426;28;20119;-80
2023/11/12 10:00:21;;;;;;;0.60;0.60;;;6.90;99.90;;;;;;5037383;28;20048;-80
2023/11/12 10:02:47;;;;;;;0.82;0.80;;;7.00;99.90;;;;;;5035224;28;20044;-78
2023/11/12 10:05:20;;;;;;;0.70;0.70;;;7.00;99.90;;;;;;5044915;28;20490;-79
2023/11/12 10:07:47;;;;;;;0.80;0.80;;;7.00;99.90;;;;;;5066105;28;20477;-81
2023/11/12 10:10:31;;;;;;;2.17;2.08;;;7.10;99.90;;;;;;5055799;28;20072;-80
2023/11/12 10:12:58;;;;;;;1.02;0.98;;;7.10;99.90;;;;;;5036835;28;20049;-81
2023/11/12 10:15:30;;;;;;;1.33;1.33;;;7.20;99.90;;;;;;5050526;28;20099;-79
2023/11/12 10:17:56;;;;;;;0.80;0.80;;;7.20;99.90;;;;;;5059973;28;20486;-78
2023/11/12 10:20:31;;;;;;;1.05;1.05;;;7.30;99.90;;;;;;5058987;28;20055;-79
2023/11/12 10:22:59;;;;;;;0.75;0.68;;;7.20;99.90;;;;;;5033791;28;20453;-80
2023/11/12 10:25:41;;;;;;;1.55;1.35;;;7.30;99.90;;;;;;5030995;28;20052;-79
2023/11/12 10:28:09;;;;;;;0.50;0.50;;;7.30;99.90;;;;;;5033846;28;20045;-79
2023/11/12 10:30:37;;;;;;;0.50;0.50;;;7.40;99.90;;;;;;5063180;28;20048;-80
2023/11/12 10:33:23;;;;;;;1.75;0.60;;;7.50;99.90;;;;;;5057815;28;20045;-79
2023/11/12 10:35:50;;;;;;;0.60;0.60;;;7.50;99.90;;;;;;5025230;28;20044;-79
2023/11/12 10:38:17;;;;;;;;;;;7.60;99.90;;;;;;5058463;28;20119;-79
2023/11/12 10:41:03;;;;;;;2.08;1.98;;;7.70;99.90;;;;;;5044761;28;20017;-79
2023/11/12 10:43:34;;;;;;;1.75;0.77;;;7.70;99.90;;;;;;5050666;28;20074;-81
2023/11/12 10:46:08;;;;;;;0.65;0.65;;;7.70;99.90;;;;;;5053780;28;20036;-80
2023/11/12 10:48:38;;;;;;;0.60;0.60;;;7.80;99.90;;;;;;5054400;28;20037;-79
2023/11/12 10:51:06;;;;;;;0.70;0.70;;;7.90;99.90;;;;;;5054508;28;20079;-80
2023/11/12 10:53:33;;;;;;;0.70;0.70;;;8.00;99.90;;;;;;5015258;28;20501;-78
2023/11/12 10:56:02;;;;;;;0.90;0.90;;;8.00;99.90;;;;;;5056408;28;20040;-78
2023/11/12 10:58:29;;;;;;;1.35;1.35;;;8.10;99.90;;;;;;5042824;28;20037;-79
2023/11/12 11:01:01;;;;;;;1.02;1.02;;;8.10;99.90;;;;;;5045839;28;20076;-78
2023/11/12 11:03:32;;;;;;;0.50;0.50;;;8.20;99.90;;;;;;5051213;28;20482;-79
2023/11/12 11:06:05;;;;;;;0.55;0.55;;;8.30;99.90;;;;;;5054443;28;20052;-80
2023/11/12 11:08:31;;;;;;;0.65;0.65;;;8.30;99.90;;;;;;5047218;28;20499;-81
2023/11/12 11:11:01;;;;;;;;;;;8.30;99.90;;;;;;5019024;28;20506;-80
2023/11/12 11:13:27;;;;;;;0.52;0.52;;;8.40;99.90;;;;;;5058656;28;20009;-80
2023/11/12 11:15:55;;;;;;;0.68;0.60;;;8.40;99.90;;;;;;5055590;28;20472;-79
2023/11/12 11:18:30;;;;;;;0.85;0.85;;;8.30;99.90;;;;;;5058280;28;20394;-79
2023/11/12 11:21:17;;;;;;;0.50;0.50;;;8.40;99.90;;;;;;5053708;28;20749;-81
2023/11/12 11:23:55;;;;;;;0.88;0.88;;;8.40;99.90;;;;;;5037258;28;20273;-79
2023/11/12 11:26:27;;;;;;;0.82;0.82;;;8.40;99.90;;;;;;5043355;28;20044;-78
2023/11/12 11:29:09;;;;;;;1.85;1.75;;;8.40;99.90;;;;;;5044886;28;20068;-79
2023/11/12 11:31:47;;;;;;;2.47;0.73;;;8.40;99.90;;;;;;5038693;28;20040;-79
2023/11/12 11:34:14;;;;;;;1.92;1.77;;;8.40;99.90;;;;;;5042204;28;20387;-80
2023/11/12 11:36:55;;;;;;;0.50;0.50;;;8.40;99.90;;;;;;5061355;28;20457;-80
2023/11/12 11:39:28;;;;;;;0.80;0.80;;;8.50;99.90;;;;;;5022002;28;20123;-79
2023/11/12 11:41:54;;;;;;;1.08;1.00;;;8.50;99.90;;;;;;5018782;28;20053;-79
2023/11/12 11:44:41;;;;;;;0.63;0.63;;;8.60;99.90;;;;;;5052533;28;20459;-79
2023/11/12 11:47:26;;;;;;;1.17;1.15;;;8.70;99.90;;;;;;5051848;28;20140;-81
2023/11/12 11:49:57;;;;;;;0.60;0.60;;;8.70;99.90;;;;;;5066274;28;20082;-79
2023/11/12 11:52:25;;;;;;;1.52;1.42;;;8.70;99.90;;;;;;5060029;28;20090;-78
2023/11/12 11:55:00;;;;;;;0.63;0.63;;;8.80;99.90;;;;;;5058332;28;20032;-78
2023/11/12 11:57:27;;;;;;;0.65;0.65;;;8.80;99.90;;;;;;5040713;28;20040;-79
2023/11/12 11:59:58;;;;;;;0.50;0.50;;;8.80;99.90;;;;;;5043704;28;20076;-81
2023/11/12 12:02:24;;;;;;;1.65;0.57;;;8.80;99.90;;;;;;5055060;28;20049;-81
2023/11/12 12:04:58;;;;;;;0.60;0.60;;;8.90;99.90;;;;;;5046944;28;20049;-80
2023/11/12 12:07:31;;;;;;;0.57;0.57;;;8.80;99.90;;;;;;5030966;28;20037;-79
2023/11/12 12:09:59;;;;;;;0.50;0.50;;;8.80;99.90;;;;;;5036058;28;20056;-81
2023/11/12 12:12:25;;;;;;;0.40;0.40;;;8.90;99.90;;;;;;5066272;28;20036;-79
2023/11/12 12:14:51;;;;;;;0.40;0.40;;;8.90;99.90;;;;;;5035423;28;20032;-80
2023/11/12 12:17:17;;;;;;;;;;;8.90;99.90;;;;;;5019230;28;20073;-80
2023/11/12 12:19:43;;;;;;;1.80;1.70;;;8.80;99.90;;;;;;5063531;28;19920;-79
2023/11/12 12:22:11;;;;;;;0.65;0.65;;;8.80;99.90;;;;;;5060346;28;20047;-80
2023/11/12 12:24:38;;;;;;;0.60;0.60;;;8.80;99.90;;;;;;5037410;28;20037;-80
2023/11/12 12:27:12;;;;;;;0.52;0.52;;;8.90;99.90;;;;;;5048783;28;20049;-83
2023/11/12 12:29:39;;;;;;;1.77;1.67;;;8.90;99.90;;;;;;5045762;28;20072;-80
2023/11/12 12:32:20;;;;;;;0.63;0.60;;;9.00;99.90;;;;;;5058866;28;20041;-80
2023/11/12 12:34:57;;;;;;;0.40;0.40;;;8.90;99.90;;;;;;5037399;28;20073;-81
2023/11/12 12:37:28;;;;;;;1.13;0.60;;;9.00;99.90;;;;;;5038910;28;20059;-79
2023/11/12 12:40:05;;;;;;;1.55;1.17;;;9.00;99.90;;;;;;5043346;28;20117;-77
2023/11/12 12:42:32;;;;;;;0.50;0.50;;;9.10;99.90;;;;;;5036402;28;20045;-79
2023/11/12 12:44:58;;;;;;;0.50;0.50;;;9.10;99.90;;;;;;5062303;28;20075;-79
2023/11/12 12:47:33;;;;;;;0.85;0.85;;;9.10;99.90;;;;;;5058825;28;20049;-79
2023/11/12 12:50:14;;;;;;;0.95;0.95;;;10.20;99.90;;;;;;5041921;28;20041;-81
2023/11/12 12:52:44;;;;;;;0.65;0.65;;;9.20;99.90;;;;;;5056304;28;20363;-78
2023/11/12 12:55:18;;;;;;;1.58;1.50;;;9.20;99.90;;;;;;5060595;28;20055;-82
2023/11/12 12:57:49;;;;;;;0.47;0.47;;;9.30;99.90;;;;;;5016770;28;20117;-80
2023/11/12 13:00:16;;;;;;;0.60;0.60;;;9.30;99.90;;;;;;5054583;28;20055;-80
2023/11/12 13:02:42;;;;;;;1.60;1.50;;;9.30;99.90;;;;;;5057443;28;20047;-81
2023/11/12 13:05:19;;;;;;;0.55;0.55;;;9.40;99.90;;;;;;5060077;28;20083;-82
2023/11/12 13:07:51;;;;;;;;;;;9.40;99.90;;;;;;5046441;28;20107;-80